sensor_id;sensor_type;location;lat;lon;timestamp;pressure;altitude;pressure_sealevel;temperature;humidity
5146;BME280;2591;48.144;15.152;2023-04-28T00:00:51;76730.69;;;-144.65;100.00
5146;BME280;2591;48.144;15.152;2023-04-28T00:03:19;76734.78;;;-144.65;100.00
5146;BME280;2591;48.144;15.152;2023-04-28T00:05:48;76734.78;;;-144.65;100.00
5146;BME280;2591;48.144;15.152;2023-04-28T00:08:16;76726.63;;;-144.65;100.00
5146;BME280;2591;48.144;15.152;2023-04-28T00:10:44;76732.72;;;-144.65;100.00
5146;BME280;2591;48.144;15.152;2023-04-28T00:13:12;76732.72;;;-144.65;100.00
5146;BME280;2591;48.144;15.152;2023-04-28T00:15:40;76728.66;;;-144.65;100.00
5146;BME280;2591;48.144;15.152;2023-04-28T00:18:07;76734.78;;;-144.65;100.00
5146;BME280;2591;48.144;15.152;2023-04-28T00:20:35;76730.69;;;-144.65;100.00
5146;BME280;2591;48.144;15.152;2023-04-28T00:23:04;76738.84;;;-144.65;100.00
5146;BME280;2591;48.144;15.152;2023-04-28T00:25:32;76747.00;;;-144.65;100.00
5146;BME280;2591;48.144;15.152;2023-04-28T00:28:00;76749.03;;;-144.65;100.00
5146;BME280;2591;48.144;15.152;2023-04-28T00:30:28;76747.00;;;-144.65;100.00
5146;BME280;2591;48.144;15.152;2023-04-28T00:32:56;76753.13;;;-144.65;100.00
5146;BME280;2591;48.144;15.152;2023-04-28T00:35:24;76749.03;;;-144.65;100.00
5146;BME280;2591;48.144;15.152;2023-04-28T00:37:52;76738.84;;;-144.65;100.00
5146;BME280;2591;48.144;15.152;2023-04-28T00:40:21;76747.00;;;-144.65;100.00
5146;BME280;2591;48.144;15.152;2023-04-28T00:42:49;76755.16;;;-144.65;100.00
5146;BME280;2591;48.144;15.152;2023-04-28T00:45:16;76755.16;;;-144.65;100.00
5146;BME280;2591;48.144;15.152;2023-04-28T00:47:44;76767.41;;;-144.65;100.00
5146;BME280;2591;48.144;15.152;2023-04-28T00:50:12;76767.41;;;-144.65;100.00
5146;BME280;2591;48.144;15.152;2023-04-28T00:52:40;76767.41;;;-144.65;100.00
5146;BME280;2591;48.144;15.152;2023-04-28T00:55:09;76765.34;;;-144.65;100.00
5146;BME280;2591;48.144;15.152;2023-04-28T00:57:38;76763.31;;;-144.65;100.00
5146;BME280;2591;48.144;15.152;2023-04-28T01:00:07;76767.41;;;-144.65;100.00
5146;BME280;2591;48.144;15.152;2023-04-28T01:02:35;76769.44;;;-144.65;100.00
5146;BME280;2591;48.144;15.152;2023-04-28T01:05:04;76779.63;;;-144.65;100.00
5146;BME280;2591;48.144;15.152;2023-04-28T01:07:31;76783.72;;;-144.65;100.00
5146;BME280;2591;48.144;15.152;2023-04-28T01:10:00;76775.56;;;-144.65;100.00
5146;BME280;2591;48.144;15.152;2023-04-28T01:12:29;76773.50;;;-144.65;100.00
5146;BME280;2591;48.144;15.152;2023-04-28T01:14:58;76779.63;;;-144.65;100.00
5146;BME280;2591;48.144;15.152;2023-04-28T01:17:26;76777.59;;;-144.65;100.00
5146;BME280;2591;48.144;15.152;2023-04-28T01:19:54;76787.78;;;-144.65;100.00
5146;BME280;2591;48.144;15.152;2023-04-28T01:22:22;76779.63;;;-144.65;100.00
5146;BME280;2591;48.144;15.152;2023-04-28T01:24:51;76779.63;;;-144.65;100.00
5146;BME280;2591;48.144;15.152;2023-04-28T01:27:19;76783.72;;;-144.65;100.00
5146;BME280;2591;48.144;15.152;2023-04-28T01:29:48;76787.78;;;-144.65;100.00
5146;BME280;2591;48.144;15.152;2023-04-28T01:32:16;76783.72;;;-144.65;100.00
5146;BME280;2591;48.144;15.152;2023-04-28T01:34:44;76783.72;;;-144.65;100.00
5146;BME280;2591;48.144;15.152;2023-04-28T01:37:13;76787.78;;;-144.65;100.00
5146;BME280;2591;48.144;15.152;2023-04-28T01:39:40;76787.78;;;-144.65;100.00
5146;BME280;2591;48.144;15.152;2023-04-28T01:42:09;76791.88;;;-144.65;100.00
5146;BME280;2591;48.144;15.152;2023-04-28T01:44:38;76783.72;;;-144.65;100.00
5146;BME280;2591;48.144;15.152;2023-04-28T01:47:06;76783.72;;;-144.65;100.00
5146;BME280;2591;48.144;15.152;2023-04-28T01:49:34;76783.72;;;-144.65;100.00
5146;BME280;2591;48.144;15.152;2023-04-28T01:52:02;76783.72;;;-144.65;100.00
5146;BME280;2591;48.144;15.152;2023-04-28T01:54:30;76785.75;;;-144.65;100.00
5146;BME280;2591;48.144;15.152;2023-04-28T01:56:58;76791.88;;;-144.65;100.00
5146;BME280;2591;48.144;15.152;2023-04-28T01:59:29;76795.94;;;-144.65;100.00
5146;BME280;2591;48.144;15.152;2023-04-28T02:01:57;76791.88;;;-144.65;100.00
5146;BME280;2591;48.144;15.152;2023-04-28T02:04:25;76791.88;;;-144.65;100.00
5146;BME280;2591;48.144;15.152;2023-04-28T02:06:52;76787.78;;;-144.65;100.00
5146;BME280;2591;48.144;15.152;2023-04-28T02:09:20;76791.88;;;-144.65;100.00
5146;BME280;2591;48.144;15.152;2023-04-28T02:11:48;76787.78;;;-144.65;100.00
5146;BME280;2591;48.144;15.152;2023-04-28T02:14:16;76783.72;;;-144.65;100.00
5146;BME280;2591;48.144;15.152;2023-04-28T02:16:45;76789.81;;;-144.65;100.00
5146;BME280;2591;48.144;15.152;2023-04-28T02:19:13;76795.94;;;-144.65;100.00
5146;BME280;2591;48.144;15.152;2023-04-28T02:21:41;76812.25;;;-144.65;100.00
5146;BME280;2591;48.144;15.152;2023-04-28T02:24:09;76800.03;;;-144.65;100.00
5146;BME280;2591;48.144;15.152;2023-04-28T02:26:37;76804.09;;;-144.65;100.00
5146;BME280;2591;48.144;15.152;2023-04-28T02:29:05;76804.09;;;-144.65;100.00
5146;BME280;2591;48.144;15.152;2023-04-28T02:31:32;76804.09;;;-144.65;100.00
5146;BME280;2591;48.144;15.152;2023-04-28T02:34:02;76812.25;;;-144.65;100.00
5146;BME280;2591;48.144;15.152;2023-04-28T02:36:29;76816.34;;;-144.65;100.00
5146;BME280;2591;48.144;15.152;2023-04-28T02:38:57;76810.22;;;-144.65;100.00
5146;BME280;2591;48.144;15.152;2023-04-28T02:41:25;76820.41;;;-144.65;100.00
5146;BME280;2591;48.144;15.152;2023-04-28T02:43:53;76812.25;;;-144.65;100.00
5146;BME280;2591;48.144;15.152;2023-04-28T02:46:22;76802.06;;;-144.65;100.00
5146;BME280;2591;48.144;15.152;2023-04-28T02:48:50;76806.13;;;-144.65;100.00
5146;BME280;2591;48.144;15.152;2023-04-28T02:51:19;76808.19;;;-144.65;100.00
5146;BME280;2591;48.144;15.152;2023-04-28T02:53:47;76810.22;;;-144.65;100.00
5146;BME280;2591;48.144;15.152;2023-04-28T02:56:15;76812.25;;;-144.65;100.00
5146;BME280;2591;48.144;15.152;2023-04-28T02:58:43;76824.50;;;-144.65;100.00
5146;BME280;2591;48.144;15.152;2023-04-28T03:01:10;76822.47;;;-144.65;100.00
5146;BME280;2591;48.144;15.152;2023-04-28T03:03:38;76814.31;;;-144.65;100.00
5146;BME280;2591;48.144;15.152;2023-04-28T03:06:06;76824.50;;;-144.65;100.00
5146;BME280;2591;48.144;15.152;2023-04-28T03:08:36;76836.72;;;-144.65;100.00
5146;BME280;2591;48.144;15.152;2023-04-28T03:11:04;76840.81;;;-144.65;100.00
5146;BME280;2591;48.144;15.152;2023-04-28T03:13:32;76834.69;;;-144.65;100.00
5146;BME280;2591;48.144;15.152;2023-04-28T03:16:01;76844.88;;;-144.65;100.00
5146;BME280;2591;48.144;15.152;2023-04-28T03:18:29;76840.81;;;-144.65;100.00
5146;BME280;2591;48.144;15.152;2023-04-28T03:20:57;76840.81;;;-144.65;100.00
5146;BME280;2591;48.144;15.152;2023-04-28T03:23:24;76848.97;;;-144.65;100.00
5146;BME280;2591;48.144;15.152;2023-04-28T03:25:54;76857.13;;;-144.65;100.00
5146;BME280;2591;48.144;15.152;2023-04-28T03:28:22;76861.19;;;-144.65;100.00
5146;BME280;2591;48.144;15.152;2023-04-28T03:30:49;76853.03;;;-144.65;100.00
5146;BME280;2591;48.144;15.152;2023-04-28T03:33:17;76855.09;;;-144.65;100.00
5146;BME280;2591;48.144;15.152;2023-04-28T03:35:45;76853.03;;;-144.65;100.00
5146;BME280;2591;48.144;15.152;2023-04-28T03:38:13;76846.94;;;-144.65;100.00
5146;BME280;2591;48.144;15.152;2023-04-28T03:40:43;76853.03;;;-144.65;100.00
5146;BME280;2591;48.144;15.152;2023-04-28T03:43:13;76851.00;;;-144.65;100.00
5146;BME280;2591;48.144;15.152;2023-04-28T03:45:41;76848.97;;;-144.65;100.00
5146;BME280;2591;48.144;15.152;2023-04-28T03:48:08;76848.97;;;-144.65;100.00
5146;BME280;2591;48.144;15.152;2023-04-28T03:50:36;76848.97;;;-144.65;100.00
5146;BME280;2591;48.144;15.152;2023-04-28T03:53:06;76832.66;;;-144.65;100.00
5146;BME280;2591;48.144;15.152;2023-04-28T03:55:34;76826.53;;;-144.65;100.00
5146;BME280;2591;48.144;15.152;2023-04-28T03:58:02;76826.53;;;-144.65;100.00
5146;BME280;2591;48.144;15.152;2023-04-28T04:00:31;76816.34;;;-144.65;100.00
5146;BME280;2591;48.144;15.152;2023-04-28T04:02:58;76810.22;;;-144.65;100.00
5146;BME280;2591;48.144;15.152;2023-04-28T04:05:27;76808.19;;;-144.65;100.00
5146;BME280;2591;48.144;15.152;2023-04-28T04:07:55;76812.25;;;-144.65;100.00
5146;BME280;2591;48.144;15.152;2023-04-28T04:10:23;76804.09;;;-144.65;100.00
5146;BME280;2591;48.144;15.152;2023-04-28T04:12:51;76812.25;;;-144.65;100.00
5146;BME280;2591;48.144;15.152;2023-04-28T04:15:19;76808.19;;;-144.65;100.00
5146;BME280;2591;48.144;15.152;2023-04-28T04:17:48;76800.03;;;-144.65;100.00
5146;BME280;2591;48.144;15.152;2023-04-28T04:20:16;76795.94;;;-144.65;100.00
5146;BME280;2591;48.144;15.152;2023-04-28T04:22:44;76787.78;;;-144.65;100.00
5146;BME280;2591;48.144;15.152;2023-04-28T04:25:12;76779.63;;;-144.65;100.00
5146;BME280;2591;48.144;15.152;2023-04-28T04:27:39;76771.47;;;-144.65;100.00
5146;BME280;2591;48.144;15.152;2023-04-28T04:30:08;76775.56;;;-144.65;100.00
5146;BME280;2591;48.144;15.152;2023-04-28T04:32:36;76767.41;;;-144.65;100.00
5146;BME280;2591;48.144;15.152;2023-04-28T04:35:07;76767.41;;;-144.65;100.00
5146;BME280;2591;48.144;15.152;2023-04-28T04:37:34;76751.09;;;-144.65;100.00
5146;BME280;2591;48.144;15.152;2023-04-28T04:40:03;76753.13;;;-144.65;100.00
5146;BME280;2591;48.144;15.152;2023-04-28T04:42:31;76734.78;;;-144.65;100.00
5146;BME280;2591;48.144;15.152;2023-04-28T04:44:58;76734.78;;;-144.65;100.00
5146;BME280;2591;48.144;15.152;2023-04-28T04:47:26;76738.84;;;-144.65;100.00
5146;BME280;2591;48.144;15.152;2023-04-28T04:49:54;76734.78;;;-144.65;100.00
5146;BME280;2591;48.144;15.152;2023-04-28T04:52:24;76726.63;;;-144.65;100.00
5146;BME280;2591;48.144;15.152;2023-04-28T04:54:52;76714.38;;;-144.65;100.00
5146;BME280;2591;48.144;15.152;2023-04-28T04:57:21;76710.31;;;-144.65;100.00
5146;BME280;2591;48.144;15.152;2023-04-28T04:59:49;76702.16;;;-144.65;100.00
5146;BME280;2591;48.144;15.152;2023-04-28T05:02:17;76683.78;;;-144.65;100.00
5146;BME280;2591;48.144;15.152;2023-04-28T05:04:45;76667.47;;;-144.65;100.00
5146;BME280;2591;48.144;15.152;2023-04-28T05:07:13;76653.19;;;-144.65;100.00
5146;BME280;2591;48.144;15.152;2023-04-28T05:09:42;76647.09;;;-144.65;100.00
5146;BME280;2591;48.144;15.152;2023-04-28T05:12:10;76640.97;;;-144.65;100.00
5146;BME280;2591;48.144;15.152;2023-04-28T05:14:38;76649.13;;;-144.65;100.00
5146;BME280;2591;48.144;15.152;2023-04-28T05:17:05;76636.91;;;-144.65;100.00
5146;BME280;2591;48.144;15.152;2023-04-28T05:19:34;76616.50;;;-144.65;100.00
5146;BME280;2591;48.144;15.152;2023-04-28T05:22:01;76604.28;;;-144.65;100.00
5146;BME280;2591;48.144;15.152;2023-04-28T05:24:29;76592.03;;;-144.65;100.00
5146;BME280;2591;48.144;15.152;2023-04-28T05:26:58;76577.75;;;-144.65;100.00
5146;BME280;2591;48.144;15.152;2023-04-28T05:29:27;76577.75;;;-144.65;100.00
5146;BME280;2591;48.144;15.152;2023-04-28T05:31:55;76575.72;;;-144.65;100.00
5146;BME280;2591;48.144;15.152;2023-04-28T05:34:23;76563.47;;;-144.65;100.00
5146;BME280;2591;48.144;15.152;2023-04-28T05:36:51;76553.28;;;-144.65;100.00
5146;BME280;2591;48.144;15.152;2023-04-28T05:39:19;76547.16;;;-144.65;100.00
5146;BME280;2591;48.144;15.152;2023-04-28T05:41:47;76555.31;;;-144.65;100.00
5146;BME280;2591;48.144;15.152;2023-04-28T05:44:16;76559.41;;;-144.65;100.00
5146;BME280;2591;48.144;15.152;2023-04-28T05:46:44;76557.38;;;-144.65;100.00
5146;BME280;2591;48.144;15.152;2023-04-28T05:49:12;76555.31;;;-144.65;100.00
5146;BME280;2591;48.144;15.152;2023-04-28T05:51:39;76543.09;;;-144.65;100.00
5146;BME280;2591;48.144;15.152;2023-04-28T05:54:07;76524.75;;;-144.65;100.00
5146;BME280;2591;48.144;15.152;2023-04-28T05:56:35;76502.31;;;-144.65;100.00
5146;BME280;2591;48.144;15.152;2023-04-28T05:59:03;76477.84;;;-144.65;100.00
5146;BME280;2591;48.144;15.152;2023-04-28T06:01:33;76461.53;;;-144.65;100.00
5146;BME280;2591;48.144;15.152;2023-04-28T06:04:00;76441.16;;;-144.65;100.00
5146;BME280;2591;48.144;15.152;2023-04-28T06:06:29;76432.97;;;-144.65;98.70
5146;BME280;2591;48.144;15.152;2023-04-28T06:08:57;76416.69;;;-144.65;98.88
5146;BME280;2591;48.144;15.152;2023-04-28T06:11:25;76400.38;;;-144.65;97.63
5146;BME280;2591;48.144;15.152;2023-04-28T06:13:53;76398.31;;;-144.65;95.79
5146;BME280;2591;48.144;15.152;2023-04-28T06:16:21;76379.97;;;-144.65;96.96
5146;BME280;2591;48.144;15.152;2023-04-28T06:18:50;76367.75;;;-144.65;96.68
5146;BME280;2591;48.144;15.152;2023-04-28T06:21:18;76355.50;;;-144.65;95.69
5146;BME280;2591;48.144;15.152;2023-04-28T06:23:47;76351.44;;;-144.65;92.63
5146;BME280;2591;48.144;15.152;2023-04-28T06:26:17;76331.03;;;-144.65;89.63
5146;BME280;2591;48.144;15.152;2023-04-28T06:28:45;76314.72;;;-144.65;89.19
5146;BME280;2591;48.144;15.152;2023-04-28T06:31:13;76302.50;;;-144.65;88.46
5146;BME280;2591;48.144;15.152;2023-04-28T06:33:41;76290.25;;;-144.65;87.46
5146;BME280;2591;48.144;15.152;2023-04-28T06:36:10;76282.09;;;-144.65;86.09
5146;BME280;2591;48.144;15.152;2023-04-28T06:38:39;76271.91;;;-144.65;85.93
5146;BME280;2591;48.144;15.152;2023-04-28T06:41:08;76253.56;;;-144.65;86.24
5146;BME280;2591;48.144;15.152;2023-04-28T06:43:37;76239.28;;;-144.65;84.20
5146;BME280;2591;48.144;15.152;2023-04-28T06:46:05;76214.81;;;-144.65;84.82
5146;BME280;2591;48.144;15.152;2023-04-28T06:48:32;76196.47;;;-144.65;85.00
5146;BME280;2591;48.144;15.152;2023-04-28T06:51:00;76186.28;;;-144.65;83.07
5146;BME280;2591;48.144;15.152;2023-04-28T06:53:30;76167.94;;;-144.65;83.70
5146;BME280;2591;48.144;15.152;2023-04-28T06:55:59;76163.84;;;-144.65;80.10
5146;BME280;2591;48.144;15.152;2023-04-28T06:58:28;76147.53;;;-144.65;81.92
5146;BME280;2591;48.144;15.152;2023-04-28T07:00:55;76127.16;;;-144.65;82.52
5146;BME280;2591;48.144;15.152;2023-04-28T07:03:25;76102.69;;;-144.65;81.25
5146;BME280;2591;48.144;15.152;2023-04-28T07:05:53;76096.56;;;-144.65;79.38
5146;BME280;2591;48.144;15.152;2023-04-28T07:08:21;76084.34;;;-144.65;81.12
5146;BME280;2591;48.144;15.152;2023-04-28T07:10:50;76049.69;;;-144.65;80.18
5146;BME280;2591;48.144;15.152;2023-04-28T07:13:18;76045.59;;;-144.65;77.67
5146;BME280;2591;48.144;15.152;2023-04-28T07:15:45;76047.63;;;-144.65;77.73
5146;BME280;2591;48.144;15.152;2023-04-28T07:18:13;76061.91;;;-144.65;76.77
5146;BME280;2591;48.144;15.152;2023-04-28T07:20:41;76021.13;;;-144.65;77.88
5146;BME280;2591;48.144;15.152;2023-04-28T07:23:09;75990.56;;;-144.65;76.04
5146;BME280;2591;48.144;15.152;2023-04-28T07:25:37;75974.25;;;-144.65;75.95
5146;BME280;2591;48.144;15.152;2023-04-28T07:28:07;75968.13;;;-144.65;75.47
5146;BME280;2591;48.144;15.152;2023-04-28T07:30:35;75959.97;;;-144.65;74.32
5146;BME280;2591;48.144;15.152;2023-04-28T07:33:03;75951.81;;;-144.65;74.85
5146;BME280;2591;48.144;15.152;2023-04-28T07:35:31;75929.41;;;-144.65;75.86
5146;BME280;2591;48.144;15.152;2023-04-28T07:37:59;75909.00;;;-144.65;74.23
5146;BME280;2591;48.144;15.152;2023-04-28T07:40:27;75904.94;;;-144.65;73.44
5146;BME280;2591;48.144;15.152;2023-04-28T07:42:54;75919.19;;;-144.65;73.20
5146;BME280;2591;48.144;15.152;2023-04-28T07:45:24;75906.97;;;-144.65;73.92
5146;BME280;2591;48.144;15.152;2023-04-28T07:47:52;75892.69;;;-144.65;73.13
5146;BME280;2591;48.144;15.152;2023-04-28T07:50:20;75890.66;;;-144.65;73.44
5146;BME280;2591;48.144;15.152;2023-04-28T07:52:48;75872.31;;;-144.65;73.37
5146;BME280;2591;48.144;15.152;2023-04-28T07:55:16;75858.03;;;-144.65;73.82
5146;BME280;2591;48.144;15.152;2023-04-28T07:57:44;75841.72;;;-144.65;72.32
5146;BME280;2591;48.144;15.152;2023-04-28T08:00:12;75841.72;;;-144.65;73.46
5146;BME280;2591;48.144;15.152;2023-04-28T08:02:42;75800.97;;;-144.65;72.76
5146;BME280;2591;48.144;15.152;2023-04-28T08:05:10;75784.66;;;-144.65;71.66
5146;BME280;2591;48.144;15.152;2023-04-28T08:07:38;75772.41;;;-144.65;70.29
5146;BME280;2591;48.144;15.152;2023-04-28T08:10:07;75760.19;;;-144.65;71.15
5146;BME280;2591;48.144;15.152;2023-04-28T08:12:36;75747.94;;;-144.65;69.08
5146;BME280;2591;48.144;15.152;2023-04-28T08:15:04;75747.94;;;-144.65;69.41
5146;BME280;2591;48.144;15.152;2023-04-28T08:17:32;75725.53;;;-144.65;71.94
5146;BME280;2591;48.144;15.152;2023-04-28T08:20:02;75699.03;;;-144.65;70.99
5146;BME280;2591;48.144;15.152;2023-04-28T08:22:30;75672.53;;;-144.65;69.88
5146;BME280;2591;48.144;15.152;2023-04-28T08:24:58;75694.94;;;-144.65;69.85
5146;BME280;2591;48.144;15.152;2023-04-28T08:27:26;75682.72;;;-144.65;70.44
5146;BME280;2591;48.144;15.152;2023-04-28T08:29:54;75705.16;;;-144.65;69.87
5146;BME280;2591;48.144;15.152;2023-04-28T08:32:22;75715.34;;;-144.65;70.18
5146;BME280;2591;48.144;15.152;2023-04-28T08:34:50;75676.59;;;-144.65;70.72
5146;BME280;2591;48.144;15.152;2023-04-28T08:37:19;75650.09;;;-144.65;69.52
5146;BME280;2591;48.144;15.152;2023-04-28T08:39:47;75633.78;;;-144.65;69.02
5146;BME280;2591;48.144;15.152;2023-04-28T08:42:15;75593.03;;;-144.65;67.99
5146;BME280;2591;48.144;15.152;2023-04-28T08:44:45;75578.75;;;-144.65;68.17
5146;BME280;2591;48.144;15.152;2023-04-28T08:47:15;75556.34;;;-144.65;67.70
5146;BME280;2591;48.144;15.152;2023-04-28T08:49:43;75560.41;;;-144.65;67.83
5146;BME280;2591;48.144;15.152;2023-04-28T08:52:12;75548.19;;;-144.65;65.78
5146;BME280;2591;48.144;15.152;2023-04-28T08:54:45;75548.19;;;-144.65;67.40
5146;BME280;2591;48.144;15.152;2023-04-28T08:57:16;75531.88;;;-144.65;67.05
5146;BME280;2591;48.144;15.152;2023-04-28T08:59:44;75515.56;;;-144.65;65.86
5146;BME280;2591;48.144;15.152;2023-04-28T09:02:12;75507.41;;;-144.65;65.54
5146;BME280;2591;48.144;15.152;2023-04-28T09:04:42;75511.47;;;-144.65;66.60
5146;BME280;2591;48.144;15.152;2023-04-28T09:07:11;75501.28;;;-144.65;66.18
5146;BME280;2591;48.144;15.152;2023-04-28T09:09:39;75499.25;;;-144.65;65.71
5146;BME280;2591;48.144;15.152;2023-04-28T09:12:08;75482.94;;;-144.65;65.67
5146;BME280;2591;48.144;15.152;2023-04-28T09:14:37;75434.03;;;-144.65;65.23
5146;BME280;2591;48.144;15.152;2023-04-28T09:17:10;75423.84;;;-144.65;65.12
5146;BME280;2591;48.144;15.152;2023-04-28T09:19:39;75405.50;;;-144.65;64.16
5146;BME280;2591;48.144;15.152;2023-04-28T09:22:08;75407.53;;;-144.65;65.08
5146;BME280;2591;48.144;15.152;2023-04-28T09:24:52;75356.56;;;-144.65;65.33
5146;BME280;2591;48.144;15.152;2023-04-28T09:27:26;75319.88;;;-144.65;63.34
5146;BME280;2591;48.144;15.152;2023-04-28T09:29:54;75336.19;;;-144.65;64.22
5146;BME280;2591;48.144;15.152;2023-04-28T09:32:22;75287.25;;;-144.65;62.24
5146;BME280;2591;48.144;15.152;2023-04-28T09:34:54;75291.34;;;-144.65;63.33
5146;BME280;2591;48.144;15.152;2023-04-28T09:37:25;75224.06;;;-144.65;61.69
5146;BME280;2591;48.144;15.152;2023-04-28T09:40:01;75222.03;;;-144.65;60.18
5146;BME280;2591;48.144;15.152;2023-04-28T09:42:32;75220.00;;;-144.65;62.31
5146;BME280;2591;48.144;15.152;2023-04-28T09:45:01;75197.56;;;-144.65;60.26
5146;BME280;2591;48.144;15.152;2023-04-28T09:47:30;75217.97;;;-144.65;60.59
5146;BME280;2591;48.144;15.152;2023-04-28T09:50:01;75209.81;;;-144.65;61.15
5146;BME280;2591;48.144;15.152;2023-04-28T09:52:29;75185.34;;;-144.65;61.94
5146;BME280;2591;48.144;15.152;2023-04-28T09:54:58;75138.47;;;-144.65;59.18
5146;BME280;2591;48.144;15.152;2023-04-28T09:57:29;75136.44;;;-144.65;59.01
5146;BME280;2591;48.144;15.152;2023-04-28T10:00:01;75124.19;;;-144.65;58.87
5146;BME280;2591;48.144;15.152;2023-04-28T10:02:33;75152.75;;;-144.65;57.85
5146;BME280;2591;48.144;15.152;2023-04-28T10:05:05;75185.34;;;-144.65;60.00
5146;BME280;2591;48.144;15.152;2023-04-28T10:07:36;75164.97;;;-144.65;59.38
5146;BME280;2591;48.144;15.152;2023-04-28T10:10:06;75142.53;;;-144.65;59.51
5146;BME280;2591;48.144;15.152;2023-04-28T10:12:34;75124.19;;;-144.65;59.43
5146;BME280;2591;48.144;15.152;2023-04-28T10:15:08;75075.28;;;-144.65;58.36
5146;BME280;2591;48.144;15.152;2023-04-28T10:17:37;75050.81;;;-144.65;58.46
5146;BME280;2591;48.144;15.152;2023-04-28T10:20:07;75034.53;;;-144.65;57.09
5146;BME280;2591;48.144;15.152;2023-04-28T10:22:51;75050.81;;;-144.65;58.44
5146;BME280;2591;48.144;15.152;2023-04-28T10:25:26;75026.38;;;-144.65;59.25
5146;BME280;2591;48.144;15.152;2023-04-28T10:27:54;74999.88;;;-144.65;58.11
5146;BME280;2591;48.144;15.152;2023-04-28T10:30:25;74993.75;;;-144.65;57.77
5146;BME280;2591;48.144;15.152;2023-04-28T10:33:23;74993.75;;;-144.65;58.84
5146;BME280;2591;48.144;15.152;2023-04-28T10:35:53;74989.69;;;-144.65;56.63
5146;BME280;2591;48.144;15.152;2023-04-28T10:38:21;75001.91;;;-144.65;56.73
5146;BME280;2591;48.144;15.152;2023-04-28T10:40:50;75030.44;;;-144.65;56.63
5146;BME280;2591;48.144;15.152;2023-04-28T10:43:37;75077.31;;;-144.65;59.21
5146;BME280;2591;48.144;15.152;2023-04-28T10:46:10;75063.06;;;-144.65;58.45
5146;BME280;2591;48.144;15.152;2023-04-28T10:49:05;75050.81;;;-144.65;57.31
5146;BME280;2591;48.144;15.152;2023-04-28T10:51:34;75050.81;;;-144.65;57.11
5146;BME280;2591;48.144;15.152;2023-04-28T10:54:13;75069.16;;;-144.65;58.01
5146;BME280;2591;48.144;15.152;2023-04-28T10:59:43;75061.03;;;-144.65;57.93
5146;BME280;2591;48.144;15.152;2023-04-28T11:02:37;75087.50;;;-144.65;59.04
5146;BME280;2591;48.144;15.152;2023-04-28T11:05:14;75097.72;;;-144.65;58.53
5146;BME280;2591;48.144;15.152;2023-04-28T11:11:18;75148.66;;;-144.65;59.00
5146;BME280;2591;48.144;15.152;2023-04-28T11:13:47;75189.44;;;-144.65;59.86
5146;BME280;2591;48.144;15.152;2023-04-28T11:16:17;75195.53;;;-144.65;59.95
5146;BME280;2591;48.144;15.152;2023-04-28T11:18:57;75211.84;;;-144.65;60.11
5146;BME280;2591;48.144;15.152;2023-04-28T11:21:29;75209.81;;;-144.65;60.55
5146;BME280;2591;48.144;15.152;2023-04-28T11:23:58;75201.66;;;-144.65;60.88
5146;BME280;2591;48.144;15.152;2023-04-28T11:26:26;75209.81;;;-144.65;60.40
5146;BME280;2591;48.144;15.152;2023-04-28T11:28:56;75224.06;;;-144.65;61.46
5146;BME280;2591;48.144;15.152;2023-04-28T11:31:24;75222.03;;;-144.65;61.73
5146;BME280;2591;48.144;15.152;2023-04-28T11:33:58;75224.06;;;-144.65;62.41
5146;BME280;2591;48.144;15.152;2023-04-28T11:36:28;75234.28;;;-144.65;62.29
5146;BME280;2591;48.144;15.152;2023-04-28T11:38:57;75250.56;;;-144.65;63.32
5146;BME280;2591;48.144;15.152;2023-04-28T11:41:25;75248.53;;;-144.65;63.19
5146;BME280;2591;48.144;15.152;2023-04-28T11:43:53;75262.81;;;-144.65;64.00
5146;BME280;2591;48.144;15.152;2023-04-28T11:46:22;75254.66;;;-144.65;63.48
5146;BME280;2591;48.144;15.152;2023-04-28T11:49:10;75262.81;;;-144.65;64.27
5146;BME280;2591;48.144;15.152;2023-04-28T11:51:38;75270.97;;;-144.65;64.37
5146;BME280;2591;48.144;15.152;2023-04-28T11:54:07;75275.03;;;-144.65;65.87
5146;BME280;2591;48.144;15.152;2023-04-28T11:56:37;75266.88;;;-144.65;65.17
5146;BME280;2591;48.144;15.152;2023-04-28T11:59:06;75258.72;;;-144.65;63.86
5146;BME280;2591;48.144;15.152;2023-04-28T12:01:43;75258.72;;;-144.65;63.61
5146;BME280;2591;48.144;15.152;2023-04-28T12:04:14;75262.81;;;-144.65;63.86
5146;BME280;2591;48.144;15.152;2023-04-28T12:07:00;75258.72;;;-144.65;63.36
5146;BME280;2591;48.144;15.152;2023-04-28T12:09:29;75270.97;;;-144.65;63.91
5146;BME280;2591;48.144;15.152;2023-04-28T12:11:59;75270.97;;;-144.65;64.88
5146;BME280;2591;48.144;15.152;2023-04-28T12:14:28;75273.00;;;-144.65;66.09
5146;BME280;2591;48.144;15.152;2023-04-28T12:16:57;75279.09;;;-144.65;66.88
5146;BME280;2591;48.144;15.152;2023-04-28T12:19:26;75279.09;;;-144.65;66.59
5146;BME280;2591;48.144;15.152;2023-04-28T12:21:59;75291.34;;;-144.65;69.68
5146;BME280;2591;48.144;15.152;2023-04-28T12:24:28;75293.38;;;-144.65;70.71
5146;BME280;2591;48.144;15.152;2023-04-28T12:27:14;75289.31;;;-144.65;70.58
5146;BME280;2591;48.144;15.152;2023-04-28T12:29:43;75299.50;;;-144.65;70.02
5146;BME280;2591;48.144;15.152;2023-04-28T12:32:13;75299.50;;;-144.65;70.60
5146;BME280;2591;48.144;15.152;2023-04-28T12:34:44;75311.72;;;-144.65;72.45
5146;BME280;2591;48.144;15.152;2023-04-28T12:37:12;75307.66;;;-144.65;73.75
5146;BME280;2591;48.144;15.152;2023-04-28T12:39:41;75305.59;;;-144.65;72.35
5146;BME280;2591;48.144;15.152;2023-04-28T12:42:11;75319.88;;;-144.65;73.71
5146;BME280;2591;48.144;15.152;2023-04-28T12:44:39;75326.00;;;-144.65;74.29
5146;BME280;2591;48.144;15.152;2023-04-28T12:47:08;75323.94;;;-144.65;73.24
5146;BME280;2591;48.144;15.152;2023-04-28T12:49:37;75332.09;;;-144.65;75.42
5146;BME280;2591;48.144;15.152;2023-04-28T12:52:06;75336.19;;;-144.65;76.10
5146;BME280;2591;48.144;15.152;2023-04-28T12:54:34;75338.22;;;-144.65;76.61
5146;BME280;2591;48.144;15.152;2023-04-28T12:57:03;75336.19;;;-144.65;79.18
5146;BME280;2591;48.144;15.152;2023-04-28T12:59:31;75344.34;;;-144.65;80.34
5146;BME280;2591;48.144;15.152;2023-04-28T13:01:59;75348.41;;;-144.65;80.57